createdAt,value
2022-11-07T00:01:41.618Z,10.93
2022-11-07T00:04:08.390Z,10.75
2022-11-07T00:06:37.792Z,12.80
2022-11-07T00:09:04.890Z,11.63
2022-11-07T00:11:31.847Z,9.80
2022-11-07T00:13:58.740Z,9.88
2022-11-07T00:16:26.733Z,10.52
2022-11-07T00:18:53.492Z,11.70
2022-11-07T00:21:20.238Z,10.45
2022-11-07T00:23:47.404Z,11.35
2022-11-07T00:26:15.126Z,13.40
2022-11-07T00:28:43.898Z,10.25
2022-11-07T00:31:13.946Z,10.93
2022-11-07T00:33:42.057Z,10.70
2022-11-07T00:36:10.753Z,10.85
2022-11-07T00:38:37.518Z,10.68
2022-11-07T00:41:07.282Z,9.75
2022-11-07T00:43:34.490Z,11.35
2022-11-07T00:46:03.932Z,10.10
2022-11-07T00:48:32.253Z,11.43
2022-11-07T00:51:23.189Z,11.30
2022-11-07T00:53:51.099Z,12.02
2022-11-07T00:56:22.428Z,10.13
2022-11-07T00:58:49.307Z,10.50
2022-11-07T01:01:21.581Z,9.73
2022-11-07T01:04:08.674Z,10.13
2022-11-07T01:06:38.936Z,12.23
2022-11-07T01:09:13.686Z,10.35
2022-11-07T01:11:42.368Z,11.27
2022-11-07T01:14:10.183Z,10.52
2022-11-07T01:16:38.975Z,11.02
2022-11-07T01:19:07.154Z,9.52
2022-11-07T01:21:34.851Z,9.80
2022-11-07T01:24:03.541Z,9.60
2022-11-07T01:26:30.310Z,10.13
2022-11-07T01:28:57.241Z,9.90
2022-11-07T01:31:24.041Z,10.13
2022-11-07T01:33:50.923Z,10.57
2022-11-07T01:36:18.804Z,9.98
2022-11-07T01:38:48.802Z,10.73
2022-11-07T01:41:22.208Z,10.88
2022-11-07T01:44:25.142Z,8.82
2022-11-07T01:46:57.380Z,9.68
2022-11-07T01:49:34.967Z,9.25
2022-11-07T01:52:18.969Z,9.32
2022-11-07T01:54:52.835Z,9.02
2022-11-07T01:57:30.103Z,9.32
2022-11-07T02:00:02.272Z,9.43
2022-11-07T02:02:29.229Z,9.07
2022-11-07T02:05:00.786Z,9.63
2022-11-07T02:07:30.004Z,10.25
2022-11-07T02:09:57.163Z,8.80
2022-11-07T02:12:26.529Z,8.85
2022-11-07T02:14:55.932Z,8.85
2022-11-07T02:17:22.865Z,9.10
2022-11-07T02:19:56.594Z,9.85
2022-11-07T02:22:53.871Z,8.98
2022-11-07T02:25:21.197Z,8.55
2022-11-07T02:27:53.512Z,9.18
2022-11-07T02:30:25.977Z,7.53
2022-11-07T02:32:52.782Z,9.65
2022-11-07T02:35:34.864Z,7.97
2022-11-07T02:38:16.167Z,8.90
2022-11-07T02:40:47.170Z,7.97
2022-11-07T02:43:18.644Z,8.57
2022-11-07T02:45:48.972Z,8.15
2022-11-07T02:48:15.823Z,9.30
2022-11-07T02:50:43.065Z,9.55
2022-11-07T02:53:10.090Z,7.30
2022-11-07T02:55:37.055Z,8.13
2022-11-07T02:58:04.183Z,8.02
2022-11-07T03:00:30.995Z,7.75
2022-11-07T03:02:59.303Z,7.75
2022-11-07T03:05:26.124Z,7.97
2022-11-07T03:07:52.877Z,7.95
2022-11-07T03:10:19.607Z,7.60
2022-11-07T03:12:46.736Z,7.05
2022-11-07T03:15:15.050Z,8.50
2022-11-07T03:17:42.377Z,8.73
2022-11-07T03:20:10.439Z,7.38
2022-11-07T03:22:37.772Z,8.15
2022-11-07T03:25:06.710Z,9.82
2022-11-07T03:27:33.785Z,8.18
2022-11-07T03:30:00.566Z,7.57
2022-11-07T03:32:27.428Z,7.32
2022-11-07T03:34:54.127Z,7.35
2022-11-07T03:37:20.856Z,6.88
2022-11-07T03:39:47.571Z,5.85
2022-11-07T03:42:14.364Z,6.32
2022-11-07T03:44:41.086Z,7.15
2022-11-07T03:47:07.844Z,5.88
2022-11-07T03:49:34.639Z,6.40
2022-11-07T03:52:01.427Z,6.80
2022-11-07T03:54:28.188Z,7.10
2022-11-07T03:56:54.887Z,6.45
2022-11-07T03:59:21.604Z,6.22
2022-11-07T04:01:48.541Z,6.57
2022-11-07T04:04:15.444Z,6.95
2022-11-07T04:06:42.206Z,5.90
2022-11-07T04:09:09.207Z,7.88
2022-11-07T04:11:54.485Z,5.80
2022-11-07T04:14:39.842Z,5.70
2022-11-07T04:17:21.017Z,7.20
2022-11-07T04:19:51.123Z,5.85
2022-11-07T04:22:18.855Z,6.15
2022-11-07T04:24:46.384Z,5.75
2022-11-07T04:27:33.997Z,5.90
2022-11-07T04:30:19.187Z,5.78
2022-11-07T04:32:48.355Z,5.90
2022-11-07T04:35:16.016Z,5.43
2022-11-07T04:37:43.445Z,6.03
2022-11-07T04:40:11.777Z,5.82
2022-11-07T04:42:39.319Z,5.30
2022-11-07T04:45:07.336Z,5.18
2022-11-07T04:47:37.740Z,5.28
2022-11-07T04:50:13.095Z,5.95
2022-11-07T04:52:40.186Z,5.93
2022-11-07T04:55:10.115Z,4.95
2022-11-07T04:57:36.883Z,4.65
2022-11-07T05:00:04.792Z,5.03
2022-11-07T05:02:31.706Z,5.18
2022-11-07T05:04:58.571Z,5.53
2022-11-07T05:07:25.382Z,5.18
2022-11-07T05:09:52.152Z,5.10
2022-11-07T05:12:19.009Z,5.53
2022-11-07T05:14:45.752Z,6.25
2022-11-07T05:17:15.380Z,5.10
2022-11-07T05:19:43.672Z,5.55
2022-11-07T05:22:30.289Z,4.78
2022-11-07T05:24:57.085Z,4.22
2022-11-07T05:27:24.935Z,5.25
2022-11-07T05:29:52.166Z,5.15
2022-11-07T05:32:19.041Z,5.35
2022-11-07T05:34:45.800Z,5.45
2022-11-07T05:37:13.802Z,5.22
2022-11-07T05:39:40.688Z,5.32
2022-11-07T05:42:08.518Z,5.55
2022-11-07T05:44:35.316Z,4.72
2022-11-07T05:47:02.087Z,5.13
2022-11-07T05:49:28.899Z,4.20
2022-11-07T05:51:56.620Z,4.57
2022-11-07T05:54:24.655Z,6.28
2022-11-07T05:56:55.429Z,4.90
2022-11-07T05:59:22.137Z,4.40
2022-11-07T06:01:51.291Z,5.03
2022-11-07T06:04:18.509Z,4.25
2022-11-07T06:06:45.563Z,4.40
2022-11-07T06:09:12.295Z,4.13
2022-11-07T06:11:39.241Z,4.40
2022-11-07T06:14:06.125Z,3.65
2022-11-07T06:16:32.936Z,4.47
2022-11-07T06:18:59.680Z,4.13
2022-11-07T06:21:26.395Z,4.70
2022-11-07T06:23:53.164Z,4.13
2022-11-07T06:26:19.915Z,4.40
2022-11-07T06:28:46.623Z,4.10
2022-11-07T06:31:13.416Z,3.97
2022-11-07T06:33:40.156Z,6.35
2022-11-07T06:36:12.896Z,4.45
2022-11-07T06:38:40.465Z,5.15
2022-11-07T06:41:13.729Z,4.38
2022-11-07T06:43:41.263Z,4.45
2022-11-07T06:46:12.419Z,4.25
2022-11-07T06:48:39.622Z,4.40
2022-11-07T06:51:07.754Z,5.40
2022-11-07T06:53:34.607Z,4.80
2022-11-07T06:56:03.498Z,5.38
2022-11-07T06:58:30.821Z,5.07
2022-11-07T07:01:02.549Z,5.13
2022-11-07T07:03:29.761Z,4.38
2022-11-07T07:06:02.429Z,6.28
2022-11-07T07:08:29.663Z,5.32
2022-11-07T07:10:56.713Z,5.75
2022-11-07T07:13:23.436Z,4.70
2022-11-07T07:15:54.883Z,5.45
2022-11-07T07:18:22.614Z,5.90
2022-11-07T07:20:51.044Z,5.32
2022-11-07T07:23:20.093Z,5.18
2022-11-07T07:25:47.921Z,6.05
2022-11-07T07:28:15.064Z,4.90
2022-11-07T07:30:43.880Z,5.40
2022-11-07T07:33:14.437Z,8.85
2022-11-07T07:35:41.414Z,7.38
2022-11-07T07:38:08.196Z,5.75
2022-11-07T07:40:34.913Z,5.70
2022-11-07T07:43:01.657Z,4.50
2022-11-07T07:45:28.432Z,4.43
2022-11-07T07:48:02.459Z,3.92
2022-11-07T07:50:29.597Z,4.70
2022-11-07T07:52:58.426Z,5.75
2022-11-07T07:55:25.771Z,4.47
2022-11-07T07:57:52.611Z,3.50
2022-11-07T08:00:19.674Z,4.18
2022-11-07T08:02:46.410Z,4.32
2022-11-07T08:05:15.399Z,4.25
2022-11-07T08:07:51.066Z,3.92
2022-11-07T08:10:40.974Z,3.15
2022-11-07T08:13:06.635Z,4.47
2022-11-07T08:15:33.400Z,2.38
2022-11-07T08:18:04.867Z,3.83
2022-11-07T08:20:32.039Z,2.80
2022-11-07T08:23:15.810Z,3.75
2022-11-07T08:25:55.210Z,3.78
2022-11-07T08:28:24.941Z,3.08
2022-11-07T08:31:05.066Z,3.60
2022-11-07T08:33:32.183Z,3.53
2022-11-07T08:36:01.627Z,4.20
2022-11-07T08:38:33.620Z,5.25
2022-11-07T08:41:00.976Z,2.83
2022-11-07T08:43:28.119Z,3.38
2022-11-07T08:45:56.230Z,2.92
2022-11-07T08:48:24.087Z,4.00
2022-11-07T08:50:56.786Z,2.70
2022-11-07T08:53:26.272Z,2.20
2022-11-07T08:55:53.013Z,3.63
2022-11-07T08:58:21.263Z,3.70
2022-11-07T09:00:50.372Z,3.20
2022-11-07T09:03:43.712Z,3.05
2022-11-07T09:06:05.459Z,2.58
2022-11-07T09:08:33.624Z,2.90
2022-11-07T09:11:05.813Z,3.75
2022-11-07T09:13:34.601Z,3.30
2022-11-07T09:16:04.804Z,4.50
2022-11-07T09:18:32.732Z,2.88
2022-11-07T09:20:59.771Z,3.83
2022-11-07T09:23:27.671Z,2.92
2022-11-07T09:25:54.792Z,4.25
2022-11-07T09:28:21.509Z,2.33
2022-11-07T09:30:54.446Z,3.45
2022-11-07T09:33:21.618Z,2.30
2022-11-07T09:35:48.954Z,3.28
2022-11-07T09:38:16.630Z,2.97
2022-11-07T09:41:07.010Z,3.20
2022-11-07T09:44:06.277Z,2.80
2022-11-07T09:47:01.128Z,2.50
2022-11-07T09:49:42.238Z,2.67
2022-11-07T09:52:31.563Z,5.85
2022-11-07T09:55:14.533Z,2.20
2022-11-07T09:57:42.407Z,2.35
2022-11-07T10:00:20.035Z,2.72
2022-11-07T10:02:55.330Z,2.25
2022-11-07T10:05:53.794Z,2.42
2022-11-07T10:08:37.001Z,3.53
2022-11-07T10:11:29.476Z,2.78
2022-11-07T10:14:01.919Z,2.42
2022-11-07T10:16:49.013Z,2.42
2022-11-07T10:19:48.844Z,3.17
2022-11-07T10:23:15.166Z,3.67
2022-11-07T10:26:12.116Z,2.70
2022-11-07T10:29:02.659Z,3.75
2022-11-07T10:31:39.517Z,3.00
2022-11-07T10:34:36.423Z,2.17
2022-11-07T10:37:04.513Z,4.15
2022-11-07T10:39:32.104Z,2.25
2022-11-07T10:42:19.599Z,2.92
2022-11-07T10:44:47.396Z,3.58
2022-11-07T10:47:24.119Z,2.40
2022-11-07T10:50:20.592Z,2.53
2022-11-07T10:52:59.082Z,4.07
2022-11-07T10:55:27.641Z,3.15
2022-11-07T10:58:07.215Z,2.13
2022-11-07T11:00:39.666Z,2.60
2022-11-07T11:03:29.036Z,4.57
2022-11-07T11:06:22.598Z,4.32
2022-11-07T11:08:52.270Z,3.22
2022-11-07T11:11:37.474Z,3.00
2022-11-07T11:14:13.914Z,4.20
2022-11-07T11:16:43.033Z,2.60
2022-11-07T11:19:30.624Z,3.75
2022-11-07T11:21:59.219Z,3.80
2022-11-07T11:24:35.909Z,1.67
2022-11-07T11:27:12.859Z,1.67
2022-11-07T11:29:49.901Z,2.53
2022-11-07T11:32:31.656Z,1.70
2022-11-07T11:35:08.126Z,3.72
2022-11-07T11:37:41.590Z,2.65
2022-11-07T11:40:17.061Z,3.85
2022-11-07T11:43:18.832Z,3.10
2022-11-07T11:46:07.823Z,2.60
2022-11-07T11:48:39.834Z,2.35
2022-11-07T11:51:31.239Z,1.88
2022-11-07T11:53:58.131Z,3.83
2022-11-07T11:56:35.063Z,2.75
2022-11-07T11:59:42.355Z,3.08
2022-11-07T12:03:09.618Z,2.70
2022-11-07T12:06:02.925Z,3.55
2022-11-07T12:08:59.356Z,2.90
2022-11-07T12:11:59.852Z,3.55
2022-11-07T12:14:56.108Z,3.25
2022-11-07T12:17:50.720Z,3.85
2022-11-07T12:20:32.752Z,3.05
2022-11-07T12:23:34.081Z,3.53
2022-11-07T12:26:34.800Z,2.35
2022-11-07T12:29:12.226Z,3.55
2022-11-07T12:32:17.086Z,1.95
2022-11-07T12:35:17.801Z,2.95
2022-11-07T12:38:19.654Z,2.58
2022-11-07T12:41:09.817Z,2.33
2022-11-07T12:44:06.589Z,2.50
2022-11-07T12:46:58.461Z,3.65
2022-11-07T12:49:51.625Z,2.45
2022-11-07T12:52:45.974Z,1.65
2022-11-07T12:58:01.388Z,4.32
2022-11-07T13:00:30.493Z,3.20
2022-11-07T13:03:20.326Z,2.90
2022-11-07T13:06:52.264Z,1.80
2022-11-07T13:09:49.591Z,2.90
2022-11-07T13:12:37.344Z,4.10
2022-11-07T13:15:08.785Z,2.72
2022-11-07T13:17:43.733Z,3.85
2022-11-07T13:20:24.861Z,2.65
2022-11-07T13:23:13.967Z,2.17
2022-11-07T13:25:41.064Z,5.88
2022-11-07T13:28:39.096Z,3.42
2022-11-07T13:31:33.924Z,8.50
2022-11-07T13:34:19.718Z,4.65
2022-11-07T13:36:49.893Z,3.45
2022-11-07T13:39:17.904Z,2.50
2022-11-07T13:41:46.208Z,3.70
2022-11-07T13:44:38.194Z,2.10
2022-11-07T13:47:17.315Z,2.47
2022-11-07T13:49:47.593Z,3.67
2022-11-07T13:52:31.921Z,2.95
2022-11-07T13:55:12.822Z,2.60
2022-11-07T13:57:52.535Z,3.60
2022-11-07T14:00:21.317Z,2.33
2022-11-07T14:02:57.816Z,3.22
2022-11-07T14:05:34.943Z,3.50
2022-11-07T14:08:14.700Z,2.58
2022-11-07T14:10:47.774Z,3.22
2022-11-07T14:13:24.791Z,3.25
2022-11-07T14:16:06.130Z,1.98
2022-11-07T14:18:40.158Z,3.78
2022-11-07T14:21:22.924Z,2.85
2022-11-07T14:23:49.798Z,2.95
2022-11-07T14:26:28.464Z,2.80
2022-11-07T14:28:56.854Z,3.15
2022-11-07T14:31:32.948Z,4.20
2022-11-07T14:34:15.898Z,3.08
2022-11-07T14:36:52.823Z,4.57
2022-11-07T14:39:22.560Z,3.60
2022-11-07T14:41:51.133Z,4.50
2022-11-07T14:44:36.291Z,3.17
2022-11-07T14:47:18.850Z,3.25
2022-11-07T14:49:49.757Z,4.30
2022-11-07T14:52:25.506Z,3.22
2022-11-07T14:55:21.255Z,3.13
2022-11-07T14:57:48.669Z,3.50
2022-11-07T15:00:19.412Z,4.85
2022-11-07T15:02:51.063Z,3.38
2022-11-07T15:05:26.874Z,3.72
2022-11-07T15:07:55.103Z,2.85
2022-11-07T15:10:32.104Z,4.75
2022-11-07T15:13:04.252Z,4.75
2022-11-07T15:15:36.013Z,4.50
2022-11-07T15:18:06.526Z,4.05
2022-11-07T15:20:38.230Z,3.30
2022-11-07T15:23:27.922Z,4.03
2022-11-07T15:26:07.873Z,4.40
2022-11-07T15:28:49.018Z,5.68
2022-11-07T15:31:27.798Z,3.67
2022-11-07T15:33:58.168Z,3.28
2022-11-07T15:36:25.849Z,4.35
2022-11-07T15:38:54.066Z,4.63
2022-11-07T15:41:21.004Z,5.20
2022-11-07T15:43:47.820Z,4.40
2022-11-07T15:46:35.550Z,3.72
2022-11-07T15:49:02.982Z,3.72
2022-11-07T15:51:30.942Z,5.88
2022-11-07T15:53:58.549Z,4.13
2022-11-07T15:56:26.633Z,4.35
2022-11-07T15:58:55.220Z,2.70
2022-11-07T16:01:23.518Z,3.60
2022-11-07T16:03:50.518Z,3.22
2022-11-07T16:06:31.268Z,4.18
2022-11-07T16:08:58.510Z,4.85
2022-11-07T16:11:25.473Z,4.50
2022-11-07T16:13:59.267Z,4.57
2022-11-07T16:16:34.245Z,3.00
2022-11-07T16:19:01.223Z,3.38
2022-11-07T16:21:28.023Z,4.05
2022-11-07T16:23:54.736Z,3.45
2022-11-07T16:26:28.705Z,3.25
2022-11-07T16:28:55.545Z,5.00
2022-11-07T16:31:22.465Z,3.97
2022-11-07T16:33:49.244Z,3.72
2022-11-07T16:36:26.403Z,2.53
2022-11-07T16:38:53.297Z,4.85
2022-11-07T16:41:20.054Z,3.70
2022-11-07T16:43:48.011Z,4.40
2022-11-07T16:46:21.607Z,4.43
2022-11-07T16:48:53.823Z,4.25
2022-11-07T16:51:22.378Z,2.63
2022-11-07T16:53:49.176Z,4.50
2022-11-07T16:56:28.758Z,3.85
2022-11-07T16:58:55.844Z,3.25
2022-11-07T17:01:24.952Z,3.17
2022-11-07T17:03:52.388Z,3.70
2022-11-07T17:06:32.113Z,2.78
2022-11-07T17:09:07.444Z,3.25
2022-11-07T17:11:37.787Z,2.80
2022-11-07T17:14:04.692Z,2.30
2022-11-07T17:16:35.587Z,3.67
2022-11-07T17:19:04.004Z,3.72
2022-11-07T17:21:36.919Z,4.45
2022-11-07T17:24:04.673Z,4.53
2022-11-07T17:26:38.895Z,3.55
2022-11-07T17:29:08.862Z,4.15
2022-11-07T17:31:35.603Z,3.58
2022-11-07T17:34:02.526Z,4.60
2022-11-07T17:36:38.212Z,2.92
2022-11-07T17:39:11.466Z,4.60
2022-11-07T17:41:40.872Z,5.72
2022-11-07T17:44:08.737Z,3.78
2022-11-07T17:46:41.276Z,4.55
2022-11-07T17:49:10.267Z,5.32
2022-11-07T17:51:37.006Z,3.25
2022-11-07T17:54:04.504Z,3.35
2022-11-07T17:56:33.471Z,4.07
2022-11-07T17:59:07.782Z,3.75
2022-11-07T18:01:38.162Z,3.10
2022-11-07T18:04:09.180Z,3.60
2022-11-07T18:06:39.221Z,4.35
2022-11-07T18:09:11.298Z,4.18
2022-11-07T18:11:38.004Z,3.70
2022-11-07T18:14:04.732Z,4.45
2022-11-07T18:16:36.052Z,3.58
2022-11-07T18:19:05.307Z,5.68
2022-11-07T18:21:32.722Z,6.80
2022-11-07T18:23:59.503Z,4.85
2022-11-07T18:26:33.872Z,2.60
2022-11-07T18:29:06.386Z,4.30
2022-11-07T18:31:34.597Z,3.90
2022-11-07T18:34:05.733Z,3.65
2022-11-07T18:36:37.789Z,4.82
2022-11-07T18:39:08.951Z,2.78
2022-11-07T18:41:35.968Z,3.33
2022-11-07T18:44:05.087Z,3.42
2022-11-07T18:46:32.796Z,3.67
2022-11-07T18:48:59.943Z,5.53
2022-11-07T18:51:26.720Z,4.57
2022-11-07T18:53:54.526Z,3.58
2022-11-07T18:56:21.900Z,4.38
2022-11-07T18:58:48.875Z,3.65
2022-11-07T19:01:19.826Z,4.35
2022-11-07T19:03:47.202Z,5.53
2022-11-07T19:06:18.766Z,5.20
2022-11-07T19:08:47.760Z,3.63
2022-11-07T19:11:19.598Z,3.63
2022-11-07T19:13:47.795Z,4.63
2022-11-07T19:16:17.381Z,3.30
2022-11-07T19:18:49.351Z,3.78
2022-11-07T19:21:20.342Z,3.85
2022-11-07T19:23:48.629Z,5.13
2022-11-07T19:26:16.273Z,3.85
2022-11-07T19:28:43.066Z,3.70
2022-11-07T19:31:12.892Z,3.30
2022-11-07T19:33:41.618Z,3.47
2022-11-07T19:36:17.449Z,3.35
2022-11-07T19:38:45.267Z,7.35
2022-11-07T19:41:14.208Z,4.28
2022-11-07T19:43:42.972Z,3.95
2022-11-07T19:46:15.366Z,5.20
2022-11-07T19:48:42.786Z,2.97
2022-11-07T19:51:20.900Z,5.47
2022-11-07T19:53:56.477Z,4.38
2022-11-07T19:56:26.554Z,5.78
2022-11-07T19:58:54.462Z,6.35
2022-11-07T20:01:28.091Z,4.55
2022-11-07T20:03:56.277Z,3.38
2022-11-07T20:06:39.359Z,3.20
2022-11-07T20:09:09.477Z,3.60
2022-11-07T20:11:36.830Z,4.40
2022-11-07T20:14:04.420Z,3.10
2022-11-07T20:16:33.743Z,6.35
2022-11-07T20:19:01.665Z,3.05
2022-11-07T20:21:29.353Z,3.85
2022-11-07T20:23:58.059Z,3.78
2022-11-07T20:26:26.740Z,4.78
2022-11-07T20:28:53.827Z,4.80
2022-11-07T20:31:30.762Z,4.68
2022-11-07T20:34:04.062Z,4.10
2022-11-07T20:36:32.076Z,3.17
2022-11-07T20:39:01.130Z,5.50
2022-11-07T20:41:28.585Z,5.65
2022-11-07T20:43:59.849Z,2.72
2022-11-07T20:46:27.015Z,5.07
2022-11-07T20:48:54.282Z,5.53
2022-11-07T20:51:25.154Z,7.20
2022-11-07T20:53:52.919Z,6.82
2022-11-07T20:56:22.309Z,4.18
2022-11-07T20:58:50.139Z,3.45
2022-11-07T21:01:21.571Z,4.00
2022-11-07T21:03:49.705Z,3.90
2022-11-07T21:06:17.643Z,4.15
2022-11-07T21:08:48.182Z,3.78
2022-11-07T21:11:17.547Z,7.20
2022-11-07T21:13:49.681Z,3.47
2022-11-07T21:16:24.562Z,3.88
2022-11-07T21:18:53.129Z,4.07
2022-11-07T21:21:27.559Z,4.45
2022-11-07T21:23:57.185Z,3.78
2022-11-07T21:26:34.298Z,3.53
2022-11-07T21:29:05.866Z,2.53
2022-11-07T21:31:33.835Z,3.22
2022-11-07T21:34:00.590Z,4.80
2022-11-07T21:36:30.192Z,4.13
2022-11-07T21:38:59.447Z,4.22
2022-11-07T21:41:27.113Z,3.75
2022-11-07T21:43:53.838Z,2.67
2022-11-07T21:46:31.773Z,4.72
2022-11-07T21:48:58.801Z,3.53
2022-11-07T21:51:29.835Z,3.65
2022-11-07T21:53:58.055Z,2.95
2022-11-07T21:56:28.103Z,4.32
2022-11-07T21:59:13.275Z,3.85
2022-11-07T22:01:41.202Z,3.20
2022-11-07T22:04:12.526Z,3.70
2022-11-07T22:06:45.324Z,5.70
2022-11-07T22:09:18.349Z,2.65
2022-11-07T22:11:46.354Z,2.67
2022-11-07T22:14:16.933Z,3.75
2022-11-07T22:16:44.011Z,3.08
2022-11-07T22:19:12.811Z,4.65
2022-11-07T22:21:40.107Z,3.42
2022-11-07T22:24:07.346Z,4.88
2022-11-07T22:26:34.157Z,3.70
2022-11-07T22:29:00.875Z,4.35
2022-11-07T22:31:30.472Z,3.72
2022-11-07T22:33:59.799Z,4.65
2022-11-07T22:36:26.931Z,3.38
2022-11-07T22:38:56.386Z,5.07
2022-11-07T22:41:25.506Z,5.47
2022-11-07T22:43:53.036Z,4.72
2022-11-07T22:46:30.058Z,2.85
2022-11-07T22:48:58.781Z,4.63
2022-11-07T22:51:33.024Z,3.05
2022-11-07T22:54:07.254Z,2.95
2022-11-07T22:56:36.258Z,3.97
2022-11-07T22:59:05.034Z,3.75
2022-11-07T23:01:38.885Z,2.90
2022-11-07T23:06:34.123Z,3.15
2022-11-07T23:09:01.615Z,3.10
2022-11-07T23:11:48.877Z,5.75
2022-11-07T23:14:20.870Z,4.38
2022-11-07T23:16:52.036Z,4.97
2022-11-07T23:19:22.633Z,2.88
2022-11-07T23:21:52.216Z,7.57
2022-11-07T23:24:20.483Z,6.97
2022-11-07T23:26:47.712Z,4.50
2022-11-07T23:29:19.617Z,5.30
2022-11-07T23:31:48.685Z,6.47
2022-11-07T23:34:16.733Z,4.70
2022-11-07T23:36:44.841Z,4.10
2022-11-07T23:39:17.865Z,5.22
2022-11-07T23:41:45.087Z,4.55
2022-11-07T23:44:12.641Z,6.57
2022-11-07T23:46:58.724Z,5.10
2022-11-07T23:49:54.970Z,4.38
2022-11-07T23:52:22.037Z,4.88
2022-11-07T23:55:07.683Z,3.47
2022-11-07T23:57:56.649Z,3.63
